Terminal Aerodrome Forecast
Issued by NWS

Home | Current Version | Previous Version | Text Only | Print | Product List | Glossary On
Versions: 1 2 3 4 5 6 7 8 9 10 11 12 13 14 15 16 17 18 19 20 21 22
000
FTUS41 KCAR 282320
TAFHUL
TAF
KHUL 282320Z 2900/2924 01008KT P6SM SCT150
     FM290300 08005KT P6SM BKN090
     FM291100 13005KT P6SM OVC030
     FM291300 13004KT P6SM OVC020
     FM291500 13005KT 3SM -SHRA SCT008 OVC012
     FM291900 14006KT P6SM OVC015=

USA.gov is the U.S. government's official web portal to all federal, state and local government web resources and services.